createdAt,value
2018-02-23T00:01:29.073Z,12.73
2018-02-23T00:07:48.599Z,12.90
2018-02-23T00:13:53.928Z,13.47
2018-02-23T00:19:59.029Z,12.20
2018-02-23T00:26:04.453Z,12.10
2018-02-23T00:32:09.394Z,13.20
2018-02-23T00:38:14.545Z,12.73
2018-02-23T00:44:21.762Z,13.50
2018-02-23T00:50:30.405Z,13.27
2018-02-23T00:56:37.898Z,12.47
2018-02-23T01:02:43.309Z,12.90
2018-02-23T01:08:49.557Z,12.37
2018-02-23T01:14:56.291Z,12.77
2018-02-23T01:21:02.544Z,12.40
2018-02-23T01:27:09.743Z,12.83
2018-02-23T01:33:21.482Z,13.87
2018-02-23T01:39:27.344Z,12.63
2018-02-23T01:45:32.890Z,11.60
2018-02-23T01:51:39.343Z,11.97
2018-02-23T01:57:44.574Z,12.33
2018-02-23T02:03:49.708Z,10.90
2018-02-23T02:09:55.903Z,11.10
2018-02-23T02:16:01.108Z,10.37
2018-02-23T02:22:06.281Z,10.70
2018-02-23T02:28:11.061Z,8.70
2018-02-23T02:34:15.807Z,8.90
2018-02-23T02:40:21.181Z,7.83
2018-02-23T02:46:26.538Z,7.53
2018-02-23T02:52:32.860Z,7.47
2018-02-23T02:58:39.381Z,6.27
2018-02-23T03:04:46.844Z,6.73
2018-02-23T03:10:56.670Z,6.30
2018-02-23T03:17:01.641Z,6.70
2018-02-23T03:23:07.344Z,6.30
2018-02-23T03:29:12.146Z,6.47
2018-02-23T03:35:16.850Z,7.40
2018-02-23T03:41:24.886Z,7.47
2018-02-23T03:47:32.400Z,6.10
2018-02-23T03:53:37.382Z,6.07
2018-02-23T03:59:42.252Z,6.60
2018-02-23T04:05:48.409Z,5.73
2018-02-23T04:11:53.579Z,5.93
2018-02-23T04:17:59.581Z,4.90
2018-02-23T04:24:04.478Z,5.53
2018-02-23T04:30:10.115Z,6.63
2018-02-23T04:36:16.201Z,6.20
2018-02-23T04:42:21.618Z,6.30
2018-02-23T04:48:26.583Z,6.30
2018-02-23T04:54:32.045Z,7.60
2018-02-23T05:00:37.840Z,8.00
2018-02-23T05:06:42.705Z,7.33
2018-02-23T05:12:48.110Z,7.70
2018-02-23T05:28:38.034Z,8.60
2018-02-23T05:34:43.136Z,8.20
2018-02-23T05:40:48.600Z,8.43
2018-02-23T05:46:55.018Z,9.33
2018-02-23T05:53:00.110Z,8.30
2018-02-23T05:59:05.130Z,8.13
2018-02-23T06:05:10.075Z,9.00
2018-02-23T06:11:15.161Z,8.80
2018-02-23T06:17:26.229Z,8.70
2018-02-23T06:23:31.400Z,11.20
2018-02-23T06:29:36.152Z,9.20
2018-02-23T06:35:44.145Z,9.27
2018-02-23T06:41:51.373Z,8.90
2018-02-23T06:47:57.005Z,9.60
2018-02-23T06:54:01.972Z,8.93
2018-02-23T07:00:07.330Z,10.00
2018-02-23T07:06:12.790Z,9.83
2018-02-23T07:12:17.509Z,11.27
2018-02-23T07:18:23.606Z,11.10
2018-02-23T07:24:28.759Z,9.23
2018-02-23T07:30:33.773Z,9.90
2018-02-23T07:36:39.088Z,10.77
2018-02-23T07:42:44.095Z,10.80
2018-02-23T07:48:49.052Z,11.70
2018-02-23T07:54:54.980Z,12.30
2018-02-23T08:00:59.689Z,11.40
2018-02-23T08:07:05.255Z,11.07
2018-02-23T08:13:09.983Z,10.67
2018-02-23T08:19:15.443Z,10.60
2018-02-23T08:25:20.914Z,11.50
2018-02-23T08:31:26.388Z,9.70
2018-02-23T08:37:32.259Z,10.00
2018-02-23T08:43:37.192Z,9.10
2018-02-23T08:49:43.154Z,9.50
2018-02-23T08:55:48.116Z,8.30
2018-02-23T09:01:54.518Z,8.63
2018-02-23T09:07:59.229Z,9.50
2018-02-23T09:14:04.514Z,7.30
2018-02-23T09:20:09.930Z,9.20
2018-02-23T09:26:15.449Z,7.83
2018-02-23T09:38:55.207Z,8.20
2018-02-23T09:44:59.767Z,7.67
2018-02-23T09:51:04.339Z,7.67
2018-02-23T09:57:08.902Z,6.90
2018-02-23T10:03:13.598Z,7.73
2018-02-23T10:09:18.409Z,8.70
2018-02-23T10:15:23.702Z,7.93
2018-02-23T10:21:28.315Z,8.40
2018-02-23T10:27:32.878Z,7.50
2018-02-23T10:33:37.647Z,8.00
2018-02-23T10:39:42.178Z,7.87
2018-02-23T10:45:47.557Z,7.60
2018-02-23T10:51:52.490Z,8.03
2018-02-23T10:57:57.927Z,8.13
2018-02-23T11:04:02.590Z,6.20
2018-02-23T11:10:07.089Z,5.90
2018-02-23T11:16:11.933Z,6.90
2018-02-23T11:22:16.585Z,6.03
2018-02-23T11:28:21.393Z,6.80
2018-02-23T11:34:26.123Z,6.43
2018-02-23T11:40:30.763Z,7.67
2018-02-23T11:46:40.471Z,8.00
2018-02-23T11:52:45.064Z,7.93
2018-02-23T11:58:50.146Z,7.30
2018-02-23T12:04:54.747Z,7.37
2018-02-23T12:10:59.386Z,7.10
2018-02-23T12:17:03.964Z,7.03
2018-02-23T12:23:09.320Z,7.03
2018-02-23T12:29:13.926Z,6.63
2018-02-23T12:35:18.554Z,7.33
2018-02-23T12:41:23.546Z,8.70
2018-02-23T12:47:28.170Z,8.00
2018-02-23T12:53:33.684Z,8.50
2018-02-23T12:59:38.259Z,9.33
2018-02-23T13:05:42.883Z,9.00
2018-02-23T13:11:47.644Z,9.20
2018-02-23T13:17:52.426Z,9.60
2018-02-23T13:23:57.781Z,7.90
2018-02-23T13:30:02.340Z,8.50
2018-02-23T13:36:07.757Z,8.30
2018-02-23T13:42:12.411Z,8.00
2018-02-23T13:48:18.717Z,6.80
2018-02-23T13:54:24.560Z,6.07
2018-02-23T14:00:29.808Z,6.90
2018-02-23T14:06:36.867Z,7.63
2018-02-23T14:12:44.752Z,6.70
2018-02-23T14:25:38.345Z,8.17
2018-02-23T14:31:43.143Z,7.43
2018-02-23T14:37:50.746Z,7.80
2018-02-23T14:44:01.259Z,7.03
2018-02-23T14:50:24.608Z,7.97
2018-02-23T14:56:31.611Z,8.40
2018-02-23T15:02:36.710Z,6.90
2018-02-23T15:08:42.420Z,7.47
2018-02-23T15:14:48.993Z,9.20
2018-02-23T15:20:55.772Z,7.80
2018-02-23T15:27:01.255Z,7.97
2018-02-23T15:33:05.865Z,5.63
2018-02-23T15:39:10.743Z,7.27
2018-02-23T15:45:16.614Z,7.63
2018-02-23T15:51:25.537Z,6.77
2018-02-23T15:57:31.575Z,5.97
2018-02-23T16:03:36.227Z,6.27
2018-02-23T16:09:42.115Z,6.73
2018-02-23T16:15:48.290Z,6.50
2018-02-23T16:21:54.326Z,6.67
2018-02-23T16:27:59.443Z,6.43
2018-02-23T16:34:04.158Z,6.57
2018-02-23T16:40:09.052Z,7.40
2018-02-23T16:46:14.244Z,8.10
2018-02-23T16:52:19.988Z,7.50
2018-02-23T16:58:24.758Z,7.80
2018-02-23T17:04:29.532Z,8.27
2018-02-23T17:10:34.144Z,8.63
2018-02-23T17:16:40.117Z,7.67
2018-02-23T17:22:44.870Z,11.07
2018-02-23T17:28:52.326Z,10.20
2018-02-23T17:34:57.171Z,10.00
2018-02-23T17:41:02.450Z,10.60
2018-02-23T17:47:07.217Z,13.03
2018-02-23T17:53:12.289Z,12.23
2018-02-23T17:59:17.094Z,12.50
2018-02-23T18:05:26.002Z,12.67
2018-02-23T18:11:30.628Z,15.00
2018-02-23T18:17:35.419Z,13.87
2018-02-23T18:23:40.260Z,14.27
2018-02-23T18:29:46.153Z,13.07
2018-02-23T18:35:52.513Z,15.63
2018-02-23T18:41:57.835Z,14.37
2018-02-23T18:48:04.847Z,15.03
2018-02-23T18:54:09.646Z,17.10
2018-02-23T19:00:15.195Z,16.50
2018-02-23T19:06:20.106Z,18.43
2018-02-23T19:12:24.794Z,17.80
2018-02-23T19:18:30.360Z,16.80
2018-02-23T19:24:35.032Z,16.80
2018-02-23T19:30:39.735Z,17.60
2018-02-23T19:36:44.335Z,18.60
2018-02-23T19:42:50.947Z,18.40
2018-02-23T19:48:56.858Z,15.83
2018-02-23T19:55:01.532Z,17.30
2018-02-23T20:01:06.516Z,17.53
2018-02-23T20:07:11.397Z,17.10
2018-02-23T20:13:16.862Z,16.90
2018-02-23T20:19:23.347Z,17.60
2018-02-23T20:25:28.112Z,15.80
2018-02-23T20:31:32.808Z,18.10
2018-02-23T20:37:39.074Z,16.13
2018-02-23T20:43:44.713Z,17.13
2018-02-23T20:49:50.773Z,18.90
2018-02-23T20:55:56.440Z,16.47
2018-02-23T21:02:01.477Z,17.83
2018-02-23T21:08:06.268Z,16.50
2018-02-23T21:14:11.200Z,15.90
2018-02-23T21:20:15.954Z,14.97
2018-02-23T21:26:20.939Z,14.07
2018-02-23T21:32:26.088Z,14.27
2018-02-23T21:38:30.736Z,14.33
2018-02-23T21:44:48.151Z,14.07
2018-02-23T21:50:53.161Z,11.73
2018-02-23T21:56:58.742Z,13.00
2018-02-23T22:03:03.428Z,12.80
2018-02-23T22:09:09.723Z,12.30
2018-02-23T22:15:14.461Z,13.33
2018-02-23T22:21:20.023Z,12.57
2018-02-23T22:27:25.386Z,10.77
2018-02-23T22:33:30.081Z,12.83
2018-02-23T22:39:34.806Z,12.77
2018-02-23T22:45:40.200Z,12.80
2018-02-23T22:51:46.024Z,13.60
2018-02-23T22:57:51.568Z,13.07
2018-02-23T23:03:56.474Z,12.63
2018-02-23T23:10:01.097Z,14.70
2018-02-23T23:16:07.236Z,15.17
2018-02-23T23:22:12.096Z,14.80
2018-02-23T23:28:17.051Z,12.50
2018-02-23T23:34:23.488Z,14.90
2018-02-23T23:40:28.869Z,14.17
2018-02-23T23:46:33.588Z,12.60
2018-02-23T23:52:38.365Z,14.40
2018-02-23T23:58:44.852Z,14.53
